createdAt,value
2023-03-07T00:00:39.930Z,96935.28
2023-03-07T00:03:48.637Z,96933.47
2023-03-07T00:06:55.268Z,96940.31
2023-03-07T00:10:01.082Z,96941.47
2023-03-07T00:13:07.722Z,96941.47
2023-03-07T00:16:18.254Z,96937.22
2023-03-07T00:19:27.606Z,96941.66
2023-03-07T00:22:33.469Z,96933.09
2023-03-07T00:25:39.864Z,96936.25
2023-03-07T00:28:45.755Z,96920.50
2023-03-07T00:31:52.845Z,96927.41
2023-03-07T00:35:03.862Z,96931.06
2023-03-07T00:38:10.313Z,96921.06
2023-03-07T00:41:18.620Z,96920.69
2023-03-07T00:44:25.636Z,96920.69
2023-03-07T00:47:31.154Z,96916.06
2023-03-07T00:50:40.709Z,96921.09
2023-03-07T00:53:47.750Z,96920.00
2023-03-07T00:56:54.294Z,96924.84
2023-03-07T01:00:00.180Z,96911.28
2023-03-07T01:03:06.709Z,96905.44
2023-03-07T01:06:19.445Z,96912.22
2023-03-07T01:09:27.104Z,96905.50
2023-03-07T01:12:32.960Z,96903.44
2023-03-07T01:15:40.055Z,96900.13
2023-03-07T01:18:47.096Z,96891.91
2023-03-07T01:21:56.290Z,96888.75
2023-03-07T01:25:02.321Z,96893.94
2023-03-07T01:28:09.619Z,96887.59
2023-03-07T01:31:16.636Z,96894.00
2023-03-07T01:34:23.296Z,96897.00
2023-03-07T01:37:33.479Z,96893.41
2023-03-07T01:40:42.879Z,96888.03
2023-03-07T01:43:48.603Z,96888.22
2023-03-07T01:47:00.963Z,96886.72
2023-03-07T01:50:20.944Z,96877.25
2023-03-07T01:53:30.308Z,96861.09
2023-03-07T01:56:39.195Z,96868.16
2023-03-07T01:59:54.017Z,96866.47
2023-03-07T02:03:15.170Z,96859.78
2023-03-07T02:06:23.658Z,96867.41
2023-03-07T02:09:38.497Z,96867.31
2023-03-07T02:12:45.820Z,96870.81
2023-03-07T02:15:53.081Z,96866.63
2023-03-07T02:19:00.477Z,96871.00
2023-03-07T02:22:14.218Z,96870.66
2023-03-07T02:25:38.971Z,96859.53
2023-03-07T02:28:51.488Z,96862.25
2023-03-07T02:31:58.275Z,96874.38
2023-03-07T02:35:03.933Z,96866.66
2023-03-07T02:38:10.658Z,96864.16
2023-03-07T02:41:20.253Z,96849.94
2023-03-07T02:44:29.569Z,96852.44
2023-03-07T02:47:36.104Z,96842.88
2023-03-07T02:50:42.231Z,96846.31
2023-03-07T02:53:49.503Z,96842.06
2023-03-07T02:56:55.912Z,96844.50
2023-03-07T03:00:06.483Z,96844.31
2023-03-07T03:03:12.298Z,96845.56
2023-03-07T03:06:20.053Z,96847.25
2023-03-07T03:09:25.863Z,96858.78
2023-03-07T03:12:32.561Z,96860.25
2023-03-07T03:15:41.234Z,96857.41
2023-03-07T03:18:48.100Z,96857.22
2023-03-07T03:21:53.564Z,96854.63
2023-03-07T03:25:00.062Z,96854.63
2023-03-07T03:28:05.835Z,96857.41
2023-03-07T03:31:18.312Z,96856.31
2023-03-07T03:34:24.162Z,96852.03
2023-03-07T03:37:31.182Z,96852.59
2023-03-07T03:40:37.076Z,96855.03
2023-03-07T03:43:43.707Z,96858.38
2023-03-07T03:46:52.420Z,96852.81
2023-03-07T03:50:01.316Z,96860.59
2023-03-07T03:53:07.619Z,96853.16
2023-03-07T03:56:17.481Z,96509.75
2023-03-07T03:59:23.113Z,96857.06
2023-03-07T04:02:33.533Z,96859.59
2023-03-07T04:05:39.225Z,96855.03
2023-03-07T04:08:46.598Z,96861.06
2023-03-07T04:11:52.766Z,96855.19
2023-03-07T04:14:59.264Z,96867.84
2023-03-07T04:18:07.951Z,96860.16
2023-03-07T04:21:14.636Z,96859.31
2023-03-07T04:24:20.455Z,96869.25
2023-03-07T04:27:27.347Z,96864.91
2023-03-07T04:30:32.999Z,96863.03
2023-03-07T04:33:42.597Z,96861.03
2023-03-07T04:36:48.240Z,96864.19
2023-03-07T04:39:54.964Z,96859.44
2023-03-07T04:43:00.512Z,96862.50
2023-03-07T04:46:08.062Z,96859.16
2023-03-07T04:49:16.554Z,96863.22
2023-03-07T04:52:23.094Z,96860.22
2023-03-07T04:55:29.191Z,96841.81
2023-03-07T04:58:36.966Z,96850.94
2023-03-07T05:01:43.433Z,96861.59
2023-03-07T05:04:52.948Z,96849.03
2023-03-07T05:07:58.912Z,96848.03
2023-03-07T05:11:05.994Z,96843.03
2023-03-07T05:14:11.731Z,96843.66
2023-03-07T05:17:18.493Z,96843.66
2023-03-07T05:20:27.047Z,96841.34
2023-03-07T05:23:33.539Z,96843.03
2023-03-07T05:26:39.764Z,96838.00
2023-03-07T05:29:46.339Z,96829.47
2023-03-07T05:32:51.861Z,96845.69
2023-03-07T05:36:04.206Z,96845.53
2023-03-07T05:39:12.345Z,96842.81
2023-03-07T05:42:19.536Z,96833.56
2023-03-07T05:45:26.784Z,96837.00
2023-03-07T05:48:33.726Z,96840.66
2023-03-07T05:51:42.713Z,96828.88
2023-03-07T05:54:51.309Z,96840.19
2023-03-07T05:57:57.631Z,96843.53
2023-03-07T06:01:05.751Z,96817.78
2023-03-07T06:04:13.106Z,96844.22
2023-03-07T06:07:22.651Z,96837.00
2023-03-07T06:10:29.270Z,96836.16
2023-03-07T06:13:36.287Z,96841.81
2023-03-07T06:16:41.738Z,96836.38
2023-03-07T06:19:48.304Z,96839.09
2023-03-07T06:22:56.924Z,96837.75
2023-03-07T06:26:04.312Z,96826.69
2023-03-07T06:29:10.283Z,96836.72
2023-03-07T06:32:17.177Z,96834.69
2023-03-07T06:35:22.850Z,96838.09
2023-03-07T06:38:33.479Z,96835.63
2023-03-07T06:41:40.325Z,96838.69
2023-03-07T06:44:46.735Z,96823.00
2023-03-07T06:47:52.508Z,96818.38
2023-03-07T06:51:04.057Z,96820.69
2023-03-07T06:54:13.154Z,96829.16
2023-03-07T06:57:19.843Z,96819.84
2023-03-07T07:00:25.792Z,96825.19
2023-03-07T07:03:32.503Z,96823.78
2023-03-07T07:06:38.003Z,96814.88
2023-03-07T07:09:47.145Z,96815.44
2023-03-07T07:12:54.710Z,96807.81
2023-03-07T07:16:06.349Z,96819.16
2023-03-07T07:19:13.348Z,96810.03
2023-03-07T07:22:21.167Z,96816.72
2023-03-07T07:25:31.443Z,96806.69
2023-03-07T07:28:37.915Z,96815.69
2023-03-07T07:31:45.851Z,96808.34
2023-03-07T07:34:52.666Z,96823.94
2023-03-07T07:37:58.765Z,96816.88
2023-03-07T07:41:08.789Z,96820.38
2023-03-07T07:44:15.054Z,96676.78
2023-03-07T07:47:51.474Z,96820.28
2023-03-07T07:50:57.477Z,96804.41
2023-03-07T07:54:03.996Z,96805.66
2023-03-07T07:57:13.539Z,96814.03
2023-03-07T08:00:22.500Z,96803.41
2023-03-07T08:03:28.280Z,96805.31
2023-03-07T08:06:35.004Z,96803.47
2023-03-07T08:09:40.787Z,96784.28
2023-03-07T08:12:54.466Z,96797.31
2023-03-07T08:16:00.186Z,96778.34
2023-03-07T08:19:07.572Z,96794.09
2023-03-07T08:22:13.256Z,96771.13
2023-03-07T08:25:23.871Z,96779.19
2023-03-07T08:28:32.550Z,96782.13
2023-03-07T08:31:39.172Z,96778.25
2023-03-07T08:34:44.787Z,96757.84
2023-03-07T08:37:52.425Z,96778.47
2023-03-07T08:41:02.040Z,96789.94
2023-03-07T08:44:11.276Z,96767.88
2023-03-07T08:47:16.898Z,96780.06
2023-03-07T08:50:23.819Z,96636.06
2023-03-07T08:53:29.397Z,96774.94
2023-03-07T08:56:35.822Z,96779.72
2023-03-07T08:59:44.056Z,96772.44
2023-03-07T09:02:50.536Z,96775.13
2023-03-07T09:05:55.992Z,96764.16
2023-03-07T09:09:02.382Z,96763.81
2023-03-07T09:12:08.415Z,96776.16
2023-03-07T09:15:18.102Z,96780.72
2023-03-07T09:18:24.625Z,96761.97
2023-03-07T09:21:31.137Z,96761.41
2023-03-07T09:24:36.822Z,96751.63
2023-03-07T09:27:45.776Z,96753.97
2023-03-07T09:30:54.068Z,96732.06
2023-03-07T09:34:00.514Z,96703.06
2023-03-07T09:37:06.041Z,96742.50
2023-03-07T09:40:23.768Z,96734.78
2023-03-07T09:43:46.103Z,96729.03
2023-03-07T09:48:11.834Z,96717.19
2023-03-07T09:51:24.613Z,96689.25
2023-03-07T09:54:44.583Z,96725.47
2023-03-07T09:57:56.300Z,96719.31
2023-03-07T10:01:04.246Z,96720.44
2023-03-07T10:04:27.334Z,96710.31
2023-03-07T10:07:43.192Z,96717.06
2023-03-07T10:11:04.324Z,96723.41
2023-03-07T10:14:31.072Z,96714.91
2023-03-07T10:18:18.244Z,96716.41
2023-03-07T10:21:43.003Z,96676.38
2023-03-07T10:25:15.915Z,96686.91
2023-03-07T10:28:29.707Z,96667.09
2023-03-07T10:31:42.078Z,96681.25
2023-03-07T10:34:52.716Z,96672.66
2023-03-07T10:38:16.734Z,96674.59
2023-03-07T10:41:25.899Z,96664.94
2023-03-07T10:44:37.589Z,96457.25
2023-03-07T10:47:45.051Z,96665.94
2023-03-07T10:51:07.797Z,96659.06
2023-03-07T10:54:24.830Z,96663.75
2023-03-07T10:57:31.452Z,96652.72
2023-03-07T11:00:38.279Z,96647.09
2023-03-07T11:03:54.248Z,96648.13
2023-03-07T11:07:02.536Z,96651.66
2023-03-07T11:10:35.185Z,96646.41
2023-03-07T11:13:41.534Z,96657.38
2023-03-07T11:16:57.261Z,96637.03
2023-03-07T11:20:25.415Z,96645.41
2023-03-07T11:23:33.270Z,96637.91
2023-03-07T11:26:44.754Z,96633.50
2023-03-07T11:30:21.278Z,96625.41
2023-03-07T11:33:58.587Z,96612.94
2023-03-07T11:37:27.533Z,96636.13
2023-03-07T11:40:45.594Z,96636.47
2023-03-07T11:44:18.042Z,96630.91
2023-03-07T11:47:52.053Z,96635.47
2023-03-07T11:51:00.487Z,96607.84
2023-03-07T11:54:24.753Z,96617.28
2023-03-07T11:58:01.038Z,96610.94
2023-03-07T12:01:28.747Z,96595.03
2023-03-07T12:05:22.522Z,96594.09
2023-03-07T12:08:54.788Z,96588.19
2023-03-07T12:12:36.198Z,96593.28
2023-03-07T12:15:56.003Z,96590.56
2023-03-07T12:19:38.323Z,96579.16
2023-03-07T12:23:10.722Z,96572.28
2023-03-07T12:26:27.025Z,96582.72
2023-03-07T12:29:43.116Z,96583.81
2023-03-07T12:32:50.985Z,96578.47
2023-03-07T12:36:08.461Z,96593.91
2023-03-07T12:39:27.776Z,96606.84
2023-03-07T12:42:47.869Z,96583.28
2023-03-07T12:46:07.370Z,96597.84
2023-03-07T12:49:26.707Z,96581.13
2023-03-07T12:52:47.983Z,96586.84
2023-03-07T12:56:17.642Z,96575.78
2023-03-07T12:59:23.857Z,96581.00
2023-03-07T13:02:39.352Z,96572.31
2023-03-07T13:05:48.758Z,96582.78
2023-03-07T13:09:04.289Z,96573.44
2023-03-07T13:12:34.271Z,96576.59
2023-03-07T13:16:34.781Z,96564.69
2023-03-07T13:19:59.201Z,96562.66
2023-03-07T13:23:28.497Z,96557.91
2023-03-07T13:26:37.084Z,96558.63
2023-03-07T13:30:18.886Z,96542.38
2023-03-07T13:33:32.025Z,96562.94
2023-03-07T13:36:41.588Z,96551.78
2023-03-07T13:40:07.212Z,96558.59
2023-03-07T13:44:04.867Z,96556.47
2023-03-07T13:47:45.137Z,96541.97
2023-03-07T13:51:12.525Z,96549.69
2023-03-07T13:54:18.101Z,96540.22
2023-03-07T13:57:36.831Z,96555.75
2023-03-07T14:00:58.012Z,96542.09
2023-03-07T14:04:14.347Z,96545.44
2023-03-07T14:07:29.970Z,96528.56
2023-03-07T14:10:37.332Z,96528.69
2023-03-07T14:14:26.222Z,96536.16
2023-03-07T14:18:03.722Z,96530.56
2023-03-07T14:21:29.142Z,96520.72
2023-03-07T14:25:00.694Z,96522.38
2023-03-07T14:28:22.641Z,96494.44
2023-03-07T14:31:32.527Z,96506.78
2023-03-07T14:34:41.840Z,96500.47
2023-03-07T14:37:48.852Z,96494.78
2023-03-07T14:41:29.462Z,96501.56
2023-03-07T14:45:20.111Z,96496.41
2023-03-07T14:48:54.838Z,96494.94
2023-03-07T14:52:06.875Z,96480.44
2023-03-07T14:55:22.969Z,96496.78
2023-03-07T14:58:34.979Z,96490.78
2023-03-07T15:01:43.703Z,96479.81
2023-03-07T15:04:57.467Z,96498.81
2023-03-07T15:08:06.327Z,96488.53
2023-03-07T15:11:29.897Z,96482.78
2023-03-07T15:14:49.526Z,96477.78
2023-03-07T15:18:01.401Z,96485.19
2023-03-07T15:21:11.193Z,96490.44
2023-03-07T15:24:32.457Z,96486.66
2023-03-07T15:27:38.051Z,96475.06
2023-03-07T15:30:44.870Z,96486.38
2023-03-07T15:33:50.588Z,96482.47
2023-03-07T15:36:57.395Z,96472.75
2023-03-07T15:40:28.747Z,96484.28
2023-03-07T15:43:39.007Z,96484.56
2023-03-07T15:46:49.980Z,96462.84
2023-03-07T15:50:01.041Z,96470.94
2023-03-07T15:53:12.766Z,96465.38
2023-03-07T15:56:36.697Z,96472.44
2023-03-07T15:59:51.950Z,96473.50
2023-03-07T16:03:28.043Z,96377.84
2023-03-07T16:06:45.161Z,96467.25
2023-03-07T16:09:51.980Z,96468.19
2023-03-07T16:13:03.593Z,96462.13
2023-03-07T16:16:25.078Z,96472.34
2023-03-07T16:19:31.532Z,96474.59
2023-03-07T16:22:37.904Z,96461.50
2023-03-07T16:25:45.957Z,96456.97
2023-03-07T16:28:57.140Z,96455.59
2023-03-07T16:32:04.339Z,96458.19
2023-03-07T16:35:18.614Z,96455.34
2023-03-07T16:38:24.093Z,96453.66
2023-03-07T16:41:30.979Z,96450.72
2023-03-07T16:44:43.573Z,96451.34
2023-03-07T16:47:50.588Z,96456.56
2023-03-07T16:50:56.224Z,96459.28
2023-03-07T16:54:02.825Z,96465.34
2023-03-07T16:57:15.849Z,96455.16
2023-03-07T17:00:29.112Z,96458.84
2023-03-07T17:03:34.711Z,96459.22
2023-03-07T17:06:42.443Z,96457.69
2023-03-07T17:09:48.286Z,96447.84
2023-03-07T17:12:57.928Z,96453.28
2023-03-07T17:16:11.520Z,96456.41
2023-03-07T17:19:29.020Z,96447.59
2023-03-07T17:22:34.889Z,96448.09
2023-03-07T17:25:41.397Z,96459.50
2023-03-07T17:28:48.117Z,96463.78
2023-03-07T17:31:57.262Z,96454.72
2023-03-07T17:35:02.815Z,96459.72
2023-03-07T17:38:09.552Z,96458.06
2023-03-07T17:41:15.163Z,96458.31
2023-03-07T17:44:21.630Z,96458.31
2023-03-07T17:47:30.128Z,96458.50
2023-03-07T17:50:36.740Z,96462.34
2023-03-07T17:53:42.549Z,96456.16
2023-03-07T17:56:48.990Z,96454.50
2023-03-07T17:59:54.656Z,96453.28
2023-03-07T18:03:04.192Z,96458.31
2023-03-07T18:06:11.087Z,96445.13
2023-03-07T18:09:18.954Z,96457.34
2023-03-07T18:12:24.438Z,96461.63
2023-03-07T18:15:30.909Z,96458.06
2023-03-07T18:18:57.704Z,96460.19
2023-03-07T18:22:05.408Z,96458.75
2023-03-07T18:25:17.292Z,96460.88
2023-03-07T18:28:23.754Z,96459.69
2023-03-07T18:31:31.169Z,96465.38
2023-03-07T18:34:40.299Z,96451.38
2023-03-07T18:37:46.327Z,96454.94
2023-03-07T18:40:53.973Z,96463.97
2023-03-07T18:44:01.775Z,96468.47
2023-03-07T18:47:08.406Z,96466.31
2023-03-07T18:50:17.373Z,96474.63
2023-03-07T18:53:23.800Z,96465.97
2023-03-07T18:56:31.139Z,96470.81
2023-03-07T18:59:37.501Z,96456.22
2023-03-07T19:02:43.108Z,96457.78
2023-03-07T19:05:53.604Z,96467.75
2023-03-07T19:09:00.027Z,96456.59
2023-03-07T19:12:06.781Z,96463.25
2023-03-07T19:15:13.830Z,96461.34
2023-03-07T19:18:20.289Z,96457.78
2023-03-07T19:21:31.064Z,96458.03
2023-03-07T19:24:37.970Z,96467.78
2023-03-07T19:27:43.574Z,96458.97
2023-03-07T19:30:50.669Z,96452.13
2023-03-07T19:33:58.908Z,96452.13
2023-03-07T19:37:08.363Z,96444.28
2023-03-07T19:40:16.042Z,96451.63
2023-03-07T19:43:22.564Z,96440.69
2023-03-07T19:46:28.516Z,96442.38
2023-03-07T19:49:34.912Z,96434.53
2023-03-07T19:52:43.351Z,96443.09
2023-03-07T19:55:50.550Z,96445.44
2023-03-07T19:58:56.629Z,96445.94
2023-03-07T20:02:02.983Z,96440.47
2023-03-07T20:05:09.881Z,96429.91
2023-03-07T20:08:19.780Z,96213.94
2023-03-07T20:11:28.177Z,96416.50
2023-03-07T20:14:34.548Z,96420.31
2023-03-07T20:17:40.053Z,96417.22
2023-03-07T20:20:46.522Z,96423.13
2023-03-07T20:23:55.903Z,96426.34
2023-03-07T20:27:02.888Z,96428.16
2023-03-07T20:30:09.849Z,96427.91
2023-03-07T20:33:16.333Z,96420.91
2023-03-07T20:36:24.960Z,96416.25
2023-03-07T20:39:34.216Z,96420.31
2023-03-07T20:42:40.037Z,96423.41
2023-03-07T20:45:46.468Z,96413.66
2023-03-07T20:48:56.558Z,96419.94
2023-03-07T20:52:03.059Z,96417.94
2023-03-07T20:55:12.338Z,96404.88
2023-03-07T20:58:18.823Z,96409.41
2023-03-07T21:01:27.000Z,96418.16
2023-03-07T21:04:33.754Z,96422.56
2023-03-07T21:07:39.513Z,96416.75
2023-03-07T21:10:48.872Z,96424.31
2023-03-07T21:13:54.592Z,96410.47
2023-03-07T21:17:02.924Z,96415.56
2023-03-07T21:20:10.218Z,96414.84
2023-03-07T21:23:16.618Z,96412.25
2023-03-07T21:26:28.276Z,96419.84
2023-03-07T21:29:34.664Z,96406.31
2023-03-07T21:32:40.294Z,96409.03
2023-03-07T21:35:46.691Z,96412.47
2023-03-07T21:38:52.860Z,96416.75
2023-03-07T21:42:02.217Z,96393.97
2023-03-07T21:45:10.412Z,96395.16
2023-03-07T21:48:17.183Z,96402.03
2023-03-07T21:51:23.612Z,96414.34
2023-03-07T21:54:30.012Z,96403.69
2023-03-07T21:57:38.796Z,96412.94
2023-03-07T22:00:45.140Z,96413.75
2023-03-07T22:03:51.207Z,96408.66
2023-03-07T22:06:57.561Z,96411.03
2023-03-07T22:10:03.600Z,96408.22
2023-03-07T22:13:13.531Z,96415.19
2023-03-07T22:16:23.500Z,96407.34
2023-03-07T22:19:29.980Z,96407.00
2023-03-07T22:22:35.487Z,96409.34
2023-03-07T22:25:41.918Z,96420.03
2023-03-07T22:28:50.203Z,96407.13
2023-03-07T22:31:56.638Z,96400.22
2023-03-07T22:35:02.223Z,96402.25
2023-03-07T22:38:08.650Z,96408.19
2023-03-07T22:41:17.019Z,96409.84
2023-03-07T22:44:26.268Z,96413.75
2023-03-07T22:47:32.496Z,96407.97
2023-03-07T22:50:41.902Z,96407.00
2023-03-07T22:53:47.477Z,96407.47
2023-03-07T22:56:53.853Z,96409.34
2023-03-07T23:00:02.259Z,96402.22
2023-03-07T23:03:08.707Z,96407.88
2023-03-07T23:06:16.586Z,96409.91
2023-03-07T23:09:22.931Z,96405.88
2023-03-07T23:12:28.726Z,96418.31
2023-03-07T23:15:37.922Z,96427.06
2023-03-07T23:18:45.560Z,96415.44
2023-03-07T23:21:51.937Z,96407.59
2023-03-07T23:24:57.721Z,96421.09
2023-03-07T23:28:04.280Z,96427.88
2023-03-07T23:31:20.555Z,96418.69
2023-03-07T23:34:26.939Z,96427.44
2023-03-07T23:37:32.582Z,96418.47
2023-03-07T23:40:38.995Z,96427.22
2023-03-07T23:43:44.995Z,96429.25
2023-03-07T23:46:54.439Z,96426.78
2023-03-07T23:50:00.174Z,96432.41
2023-03-07T23:53:06.593Z,96411.69
2023-03-07T23:56:14.717Z,96417.50
2023-03-07T23:59:21.064Z,96432.63
